KKLS

Southwest Washington Regional Airport

Kelso, Washington, USA
METAR KKLS 191241Z AUTO 00000KT 10SM BKN009 07/07 A3011 RMK AO2
Observed Flight Rules
Sep-19 @ 12:41 UTC (15 minutes ago) Instrument Flight Rules
Visibility Clouds
10 miles
  • Broken at 900' AGL
Temperatures Readings
Current 7°C / 45°F
Dewpoint 7°C / 45°F
Humidity 100%
Altimeter 30.11" Hg
Pressure 1020 hPa
Elevation 5
METAR KKLS 191241Z AUTO 00000KT 10SM BKN009 07/07 A3011 RMK AO2
Observed Flight Rules
Sep-19 @ 12:41 UTC
(15 minutes ago)
IFR
Clouds
  • Broken at 900' AGL
Temperature Dewpoint
7°C / 45°F 7°C / 45°F
Humidity Altimeter Pressure
100% 30.11" Hg 1020 hPa